»·PEaware :: N517DL KSNA-KBUR

N517DL :: KSNA-KBUR

FLIGHT INFORMATION

Flight Status: Arrived
Operator: Privately registered:
United States
More flights under this callsign
Pilot: John A. (34961)
Aircraft: CESSNA 172 SKYHAWK
(C172)
More flights by this aircraft type
Origin: KSNA John Wayne-Orange Co
United States
Destination: KBUR Bob Hope-Burbank
United States
More flights between these airports :: More routes between these airports
Route: SLI V23 POPPR SMO125 SMO SMO311 SILEX
File this flight plan on PilotEdge
Remarks: I-3 rating, dealers choice - I can do vectors for KBUR (Bob Hope) ILS Y RWY, or can do the Silex transition with procedure turn
Altitude:
(Current/Filed)
4,000ft
Speed:
(Current/Filed)
110kts
Departed: 23-Jun-21 06:39 PM
Arrived: 23-Jun-21 07:16 PM
Distance/Time
Traveled:
40nm/0:37
Distance/Time
To Go:
Arrived

Flight Plot

Page will automatically refresh every two minutes.


Map Options




Map Legend


Flown Route
Filed Route
Departure Airport
Arrival Airport
Navaid (VOR, NDB)
Fix

Horizontal Profiles

Position Reports

Time Latitude Longitude Heading Altitude Ground
Speed
23-Jun-21 18:22 33.673752 -117.865726 120 60ft 0kts
23-Jun-21 18:23 33.673752 -117.865726 120 60ft 0kts
23-Jun-21 18:24 33.673752 -117.865726 120 60ft 0kts
23-Jun-21 18:25 33.673981 -117.865788 285 60ft 0kts
23-Jun-21 18:26 33.673981 -117.865788 285 60ft 0kts
23-Jun-21 18:27 33.673981 -117.865789 285 60ft 0kts
23-Jun-21 18:28 33.673981 -117.865788 285 60ft 0kts
23-Jun-21 18:29 33.673981 -117.865788 285 60ft 0kts
23-Jun-21 18:30 33.673981 -117.865788 285 60ft 0kts
23-Jun-21 18:31 33.673981 -117.865788 285 60ft 0kts
23-Jun-21 18:32 33.673981 -117.865788 285 60ft 0kts
23-Jun-21 18:33 33.674118 -117.866198 318 60ft 7kts
23-Jun-21 18:34 33.676999 -117.864643 27 60ft 14kts
23-Jun-21 18:35 33.679843 -117.863359 299 60ft 6kts
23-Jun-21 18:36 33.679922 -117.863540 299 60ft 0kts
23-Jun-21 18:37 33.679947 -117.864257 213 60ft 7kts
23-Jun-21 18:38 33.667258 -117.871975 208 538ft 68kts
23-Jun-21 18:39 33.655132 -117.889947 231 1338ft 71kts
23-Jun-21 18:40 33.648840 -117.909717 298 2090ft 81kts
23-Jun-21 18:41 33.660804 -117.932692 289 2805ft 81kts
23-Jun-21 18:42 33.673019 -117.956102 292 3472ft 84kts
23-Jun-21 18:43 33.684180 -117.981463 291 3994ft 99kts
23-Jun-21 18:44 33.701457 -118.013588 296 3944ft 115kts
23-Jun-21 18:45 33.716131 -118.047165 285 3957ft 113kts
23-Jun-21 18:46 33.734292 -118.079190 296 3937ft 116kts
23-Jun-21 18:47 33.750427 -118.112455 295 3971ft 113kts
23-Jun-21 18:48 33.768810 -118.143778 309 4004ft 117kts
23-Jun-21 18:49 33.785119 -118.175473 293 3996ft 115kts
23-Jun-21 18:50 33.802059 -118.207747 294 3998ft 113kts
23-Jun-21 18:51 33.818797 -118.239732 293 3991ft 111kts
23-Jun-21 18:52 33.833175 -118.272627 294 3967ft 111kts
23-Jun-21 18:53 33.852685 -118.301375 320 3945ft 112kts
23-Jun-21 18:54 33.877258 -118.323413 317 3941ft 110kts
23-Jun-21 18:55 33.900598 -118.346320 314 3958ft 110kts
23-Jun-21 18:56 33.923305 -118.370168 317 3984ft 110kts
23-Jun-21 18:57 33.947350 -118.392839 313 3993ft 110kts
23-Jun-21 18:58 33.971332 -118.416784 314 3983ft 112kts
23-Jun-21 18:59 33.994314 -118.442485 311 3994ft 112kts
23-Jun-21 19:00 34.018916 -118.466628 319 4010ft 115kts
23-Jun-21 19:01 34.046807 -118.486804 316 4029ft 117kts
23-Jun-21 19:02 34.071087 -118.512506 313 4052ft 117kts
23-Jun-21 19:03 34.097959 -118.536106 321 3996ft 120kts
23-Jun-21 19:04 34.125833 -118.558521 324 3934ft 121kts
23-Jun-21 19:05 34.154855 -118.579187 323 3969ft 117kts
23-Jun-21 19:06 34.181174 -118.603570 324 3920ft 123kts
23-Jun-21 19:07 34.203299 -118.585958 98 3944ft 109kts
23-Jun-21 19:08 34.200528 -118.551275 97 3806ft 99kts
23-Jun-21 19:09 34.199984 -118.517964 93 3384ft 99kts
23-Jun-21 19:10 34.200184 -118.486761 102 2765ft 75kts
23-Jun-21 19:11 34.199186 -118.460534 98 2229ft 78kts
23-Jun-21 19:12 34.198765 -118.434472 92 1814ft 78kts
23-Jun-21 19:13 34.199053 -118.408531 96 1472ft 79kts
23-Jun-21 19:14 34.198172 -118.380968 97 1017ft 79kts
23-Jun-21 19:15 34.197873 -118.361366 100 718ft 31kts
23-Jun-21 19:16 34.196951 -118.360327 219 714ft 0kts

Navigation Log

Ident Type
Flight plan parsing failed, navigation log unavailable